메인 페이지
METAR-TAF:

METAR-TAF

공항 :

엘도라도 국제공항

보고타, 콜롬비아

위도: 04-43N, 경도: 074-09W, 고도: 2547m

현재 날씨관측

예보는 40분 전, 12:00시(UTC)에 발표되었습니다.
북북동5kt
온도 11°C
습도 87%
기압 1029 hPa
시정 10km 이상
고도 1700ft 상공 구름 조금
고도 2300ft 상공 구름 보통

METAR: SKBO 221200Z 03005KT 9999 FEW017 SCT023 11/09 A3038

시각: 07:40 (12:40 UTC)

예보

예보는 1 시간 40분 전, 11:00시(UTC)에 발표되었습니다.
예보 대상 시간: 22일 12시부터 23일 12시까지 (UTC)
여러 방향의 바람 2kt
시정 10km 이상
고도 2300ft 상공 구름 보통
고도 9000ft 상공 구름 보통
전환 중
22일 15시부터 22일 17시까지 (UTC)
동남동10kt
확률 30%
22일 21시부터 22일 23시까지 (UTC)
시정: 8000m
고도 1700ft 상공 구름 보통, 타워링 적운.
고도 8000ft 상공 구름 많음
이슬비, 비
전환 중
23일 00시부터 23일 02시까지 (UTC)
북동5kt

TAF: SKBO 221100Z 2212/2312 VRB02KT 9999 SCT023 SCT090 BECMG 2215/2217 12010KT PROB30 2221/2223 8000 DZRA SCT017TCU BKN080 BECMG 2300/2302 04005KT TX20/2218Z TN09/2311Z

4,000개 이상의 공항 관측 자료 및 예보 (METAR 및 TAF 보고).

지도상에서 검색 가능한 기상관측소가 노란 점과 빨간 점으로 표시되어 있습니다.

기상관측소 명을 보려면 표시 위로 마우스를 이동하세요.

날씨 관측과 예보를 보려면 클릭하세요.

지도 변경 : 확대하려면 엑스 표시가 있는 녹색 버튼, 축소하려면 빼기 표시가 있는 녹색 버튼, 다음 페이지의 지도를 보려면 녹색 화살표를 클릭하세요.


METAR-TAF: